createdAt,value
2023-05-11T00:00:41.058Z,89.53
2023-05-11T00:01:42.320Z,89.54
2023-05-11T00:02:39.769Z,89.50
2023-05-11T00:03:40.562Z,89.35
2023-05-11T00:04:40.035Z,89.39
2023-05-11T00:05:39.095Z,89.44
2023-05-11T00:06:39.249Z,89.57
2023-05-11T00:07:39.101Z,89.62
2023-05-11T00:08:39.320Z,89.64
2023-05-11T00:09:39.269Z,89.50
2023-05-11T00:10:39.269Z,89.51
2023-05-11T00:11:39.610Z,89.53
2023-05-11T00:12:39.909Z,89.61
2023-05-11T00:13:40.010Z,89.64
2023-05-11T00:14:39.436Z,89.63
2023-05-11T00:15:39.987Z,89.66
2023-05-11T00:16:39.125Z,89.66
2023-05-11T00:17:39.053Z,89.65
2023-05-11T00:18:39.267Z,89.62
2023-05-11T00:19:39.393Z,89.62
2023-05-11T00:20:39.744Z,89.58
2023-05-11T00:21:39.891Z,89.60
2023-05-11T00:22:39.808Z,89.63
2023-05-11T00:23:39.702Z,89.61
2023-05-11T00:25:44.367Z,89.55
2023-05-11T00:26:39.338Z,89.60
2023-05-11T00:27:39.577Z,89.61
2023-05-11T00:28:39.975Z,89.54
2023-05-11T00:29:44.655Z,89.48
2023-05-11T00:30:39.917Z,89.47
2023-05-11T00:31:40.013Z,89.66
2023-05-11T00:32:39.195Z,89.73
2023-05-11T00:33:40.012Z,89.65
2023-05-11T00:34:39.424Z,89.59
2023-05-11T00:35:39.579Z,89.51
2023-05-11T00:36:41.140Z,89.42
2023-05-11T00:37:41.426Z,89.35
2023-05-11T00:38:39.395Z,89.36
2023-05-11T00:39:39.660Z,89.37
2023-05-11T00:40:39.944Z,89.33
2023-05-11T00:41:39.616Z,89.31
2023-05-11T00:42:39.785Z,89.27
2023-05-11T00:43:39.800Z,89.27
2023-05-11T00:44:39.672Z,89.18
2023-05-11T00:45:40.089Z,89.18
2023-05-11T00:46:39.954Z,89.18
2023-05-11T00:47:40.196Z,89.14
2023-05-11T00:48:39.554Z,89.18
2023-05-11T00:49:40.004Z,89.44
2023-05-11T00:50:39.481Z,89.48
2023-05-11T00:51:40.123Z,89.36
2023-05-11T00:52:40.257Z,89.29
2023-05-11T00:53:40.351Z,89.30
2023-05-11T00:54:39.199Z,89.29
2023-05-11T00:55:39.828Z,89.29
2023-05-11T00:56:39.926Z,89.29
2023-05-11T00:57:40.498Z,89.29
2023-05-11T00:58:39.892Z,89.36
2023-05-11T00:59:39.836Z,89.45
2023-05-11T01:01:58.590Z,89.76
2023-05-11T01:02:40.158Z,89.91
2023-05-11T01:03:40.099Z,90.05
2023-05-11T01:04:40.293Z,90.10
2023-05-11T01:05:59.192Z,90.17
2023-05-11T01:06:39.324Z,90.18
2023-05-11T01:07:39.455Z,90.25
2023-05-11T01:08:39.375Z,90.32
2023-05-11T01:09:39.416Z,90.35
2023-05-11T01:10:39.946Z,90.35
2023-05-11T01:11:44.777Z,90.35
2023-05-11T01:12:39.931Z,90.28
2023-05-11T01:13:44.809Z,90.30
2023-05-11T01:14:40.060Z,90.24
2023-05-11T01:15:39.470Z,90.17
2023-05-11T01:16:39.860Z,90.12
2023-05-11T01:17:47.957Z,90.01
2023-05-11T01:18:39.343Z,89.88
2023-05-11T01:19:39.389Z,89.78
2023-05-11T01:20:39.543Z,89.69
2023-05-11T01:21:53.098Z,89.66
2023-05-11T01:22:39.331Z,89.77
2023-05-11T01:23:39.405Z,89.89
2023-05-11T01:24:39.539Z,89.97
2023-05-11T01:25:39.530Z,89.95
2023-05-11T01:26:39.624Z,89.87
2023-05-11T01:27:39.755Z,89.87
2023-05-11T01:28:39.869Z,89.97
2023-05-11T01:29:39.852Z,90.02
2023-05-11T01:30:40.336Z,90.05
2023-05-11T01:31:39.361Z,90.15
2023-05-11T01:32:41.599Z,90.19
2023-05-11T01:33:40.133Z,90.16
2023-05-11T01:34:39.189Z,90.18
2023-05-11T01:35:39.385Z,90.14
2023-05-11T01:36:39.109Z,90.15
2023-05-11T01:37:39.280Z,90.06
2023-05-11T01:38:39.294Z,89.91
2023-05-11T01:39:39.042Z,89.77
2023-05-11T01:40:39.447Z,89.70
2023-05-11T01:41:39.195Z,89.71
2023-05-11T01:42:39.261Z,89.67
2023-05-11T01:43:38.973Z,89.64
2023-05-11T01:44:39.764Z,89.69
2023-05-11T01:45:39.699Z,89.59
2023-05-11T01:46:39.782Z,89.48
2023-05-11T01:47:40.167Z,89.55
2023-05-11T01:48:39.289Z,89.58
2023-05-11T01:49:39.263Z,89.61
2023-05-11T01:50:39.372Z,89.62
2023-05-11T01:51:39.423Z,89.62
2023-05-11T01:52:39.375Z,89.66
2023-05-11T01:53:39.806Z,89.58
2023-05-11T01:54:40.546Z,89.55
2023-05-11T01:55:40.585Z,89.61
2023-05-11T01:56:39.450Z,89.67
2023-05-11T01:57:39.544Z,89.65
2023-05-11T01:58:39.910Z,89.66
2023-05-11T01:59:39.723Z,89.67
2023-05-11T02:00:40.857Z,89.74
2023-05-11T02:01:39.767Z,89.81
2023-05-11T02:02:40.183Z,89.82
2023-05-11T02:03:39.505Z,89.82
2023-05-11T02:04:39.983Z,89.80
2023-05-11T02:05:40.324Z,89.87
2023-05-11T02:06:39.113Z,90.03
2023-05-11T02:07:39.416Z,90.14
2023-05-11T02:08:39.604Z,90.18
2023-05-11T02:09:39.560Z,90.31
2023-05-11T02:10:39.665Z,90.30
2023-05-11T02:11:39.832Z,90.27
2023-05-11T02:12:40.173Z,90.39
2023-05-11T02:13:39.263Z,90.48
2023-05-11T02:14:39.462Z,90.51
2023-05-11T02:15:39.944Z,90.51
2023-05-11T02:16:40.471Z,90.59
2023-05-11T02:17:39.650Z,90.66
2023-05-11T02:18:40.388Z,90.68
2023-05-11T02:19:39.360Z,90.64
2023-05-11T02:20:39.723Z,90.63
2023-05-11T02:21:39.502Z,90.69
2023-05-11T02:22:39.214Z,90.75
2023-05-11T02:23:39.658Z,90.78
2023-05-11T02:24:39.819Z,90.78
2023-05-11T02:25:40.183Z,90.77
2023-05-11T02:26:39.521Z,90.77
2023-05-11T02:27:39.866Z,90.80
2023-05-11T02:28:40.380Z,90.82
2023-05-11T02:29:39.740Z,90.90
2023-05-11T02:30:39.987Z,90.92
2023-05-11T02:31:39.671Z,90.93
2023-05-11T02:32:39.928Z,91.00
2023-05-11T02:33:39.490Z,91.02
2023-05-11T02:34:39.440Z,91
2023-05-11T02:35:39.626Z,90.98
2023-05-11T02:36:39.904Z,91.05
2023-05-11T02:37:39.944Z,90.98
2023-05-11T02:38:40.070Z,90.84
2023-05-11T02:39:39.564Z,90.83
2023-05-11T02:40:39.951Z,90.89
2023-05-11T02:41:40.204Z,90.98
2023-05-11T02:42:39.307Z,91
2023-05-11T02:43:39.674Z,91
2023-05-11T02:44:40.124Z,91
2023-05-11T02:45:39.648Z,90.97
2023-05-11T02:46:40.308Z,90.92
2023-05-11T02:47:39.840Z,90.79
2023-05-11T02:48:40.239Z,90.74
2023-05-11T02:49:39.771Z,90.67
2023-05-11T02:50:41.347Z,90.63
2023-05-11T02:51:40.350Z,90.58
2023-05-11T02:52:39.934Z,90.55
2023-05-11T02:53:40.220Z,90.52
2023-05-11T02:54:39.490Z,90.50
2023-05-11T02:55:40.626Z,90.52
2023-05-11T02:56:39.848Z,90.51
2023-05-11T02:57:40.265Z,90.47
2023-05-11T02:58:39.417Z,90.43
2023-05-11T02:59:39.550Z,90.33
2023-05-11T03:00:41.161Z,90.34
2023-05-11T03:01:40.467Z,90.34
2023-05-11T03:02:40.209Z,90.32
2023-05-11T03:03:39.778Z,90.30
2023-05-11T03:04:40.159Z,90.30
2023-05-11T03:05:39.989Z,90.26
2023-05-11T03:06:39.601Z,90.31
2023-05-11T03:07:39.729Z,90.44
2023-05-11T03:08:40.427Z,90.52
2023-05-11T03:09:39.169Z,90.58
2023-05-11T03:10:39.568Z,90.55
2023-05-11T03:11:40.045Z,90.54
2023-05-11T03:12:39.559Z,90.52
2023-05-11T03:13:39.615Z,90.49
2023-05-11T03:14:39.578Z,90.47
2023-05-11T03:15:39.833Z,90.38
2023-05-11T03:16:39.911Z,90.25
2023-05-11T03:17:40.039Z,90.15
2023-05-11T03:18:39.231Z,90.07
2023-05-11T03:19:39.287Z,90.03
2023-05-11T03:20:39.980Z,89.97
2023-05-11T03:21:39.324Z,89.88
2023-05-11T03:22:39.368Z,89.86
2023-05-11T03:23:39.386Z,89.81
2023-05-11T03:24:39.271Z,89.78
2023-05-11T03:25:39.532Z,89.75
2023-05-11T03:26:39.689Z,89.76
2023-05-11T03:27:39.696Z,89.73
2023-05-11T03:28:40.209Z,89.74
2023-05-11T03:29:39.568Z,89.72
2023-05-11T03:30:40.030Z,89.69
2023-05-11T03:31:39.382Z,89.68
2023-05-11T03:32:39.859Z,89.62
2023-05-11T03:33:40.015Z,89.63
2023-05-11T03:34:39.426Z,89.71
2023-05-11T03:35:39.806Z,89.87
2023-05-11T03:36:39.966Z,89.91
2023-05-11T03:37:39.909Z,89.92
2023-05-11T03:38:40.095Z,89.87
2023-05-11T03:39:39.293Z,89.91
2023-05-11T03:40:39.951Z,89.91
2023-05-11T03:41:40.365Z,89.84
2023-05-11T03:42:39.301Z,89.76
2023-05-11T03:43:39.520Z,89.69
2023-05-11T03:44:39.634Z,89.65
2023-05-11T03:45:40.301Z,89.64
2023-05-11T03:46:39.735Z,89.68
2023-05-11T03:47:39.939Z,89.72
2023-05-11T03:48:40.380Z,89.72
2023-05-11T03:49:40.044Z,89.74
2023-05-11T03:50:39.679Z,89.79
2023-05-11T03:51:40.370Z,89.78
2023-05-11T03:52:39.930Z,89.74
2023-05-11T03:53:40.949Z,89.66
2023-05-11T03:54:40.374Z,89.65
2023-05-11T03:55:40.068Z,89.55
2023-05-11T03:56:40.252Z,89.46
2023-05-11T03:57:40.460Z,89.51
2023-05-11T03:58:40.220Z,89.51
2023-05-11T03:59:40.119Z,89.59
2023-05-11T04:00:41.309Z,89.54
2023-05-11T04:01:40.038Z,89.44
2023-05-11T04:02:40.647Z,89.35
2023-05-11T04:03:40.561Z,89.23
2023-05-11T04:04:40.233Z,89.20
2023-05-11T04:05:40.063Z,89.15
2023-05-11T04:06:39.749Z,89.09
2023-05-11T04:07:40.496Z,89.07
2023-05-11T04:08:39.809Z,89.15
2023-05-11T04:09:40.192Z,89.24
2023-05-11T04:10:39.864Z,89.25
2023-05-11T04:11:40.027Z,89.26
2023-05-11T04:12:39.753Z,89.29
2023-05-11T04:13:40.118Z,89.17
2023-05-11T04:14:39.673Z,89.11
2023-05-11T04:15:40.547Z,89.14
2023-05-11T04:16:39.977Z,89.28
2023-05-11T04:17:39.440Z,89.36
2023-05-11T04:18:39.661Z,89.41
2023-05-11T04:19:39.768Z,89.50
2023-05-11T04:20:39.906Z,89.58
2023-05-11T04:21:39.779Z,89.62
2023-05-11T04:22:39.570Z,89.73
2023-05-11T04:23:39.839Z,89.77
2023-05-11T04:24:40.257Z,89.83
2023-05-11T04:25:40.271Z,89.88
2023-05-11T04:26:40.296Z,89.95
2023-05-11T04:27:39.679Z,90.05
2023-05-11T04:28:39.884Z,90.04
2023-05-11T04:29:39.880Z,90.06
2023-05-11T04:30:40.320Z,90.05
2023-05-11T04:31:40.274Z,89.99
2023-05-11T04:32:39.873Z,89.98
2023-05-11T04:33:40.229Z,89.99
2023-05-11T04:34:39.843Z,89.94
2023-05-11T04:35:40.004Z,89.90
2023-05-11T04:36:39.958Z,89.95
2023-05-11T04:37:40.644Z,90.05
2023-05-11T04:38:40.386Z,90.16
2023-05-11T04:39:39.717Z,90.17
2023-05-11T04:40:40.244Z,90.18
2023-05-11T04:41:39.983Z,90.27
2023-05-11T04:42:39.817Z,90.27
2023-05-11T04:43:40.067Z,90.25
2023-05-11T04:44:39.803Z,90.23
2023-05-11T04:45:40.654Z,90.18
2023-05-11T04:46:40.240Z,90.18
2023-05-11T04:47:39.950Z,90.19
2023-05-11T04:48:39.910Z,90.26
2023-05-11T04:49:41.103Z,90.26
2023-05-11T04:50:40.225Z,90.30
2023-05-11T04:51:40.183Z,90.40
2023-05-11T04:52:40.064Z,90.43
2023-05-11T04:53:39.690Z,90.42
2023-05-11T04:54:40.521Z,90.40
2023-05-11T04:55:40.787Z,90.43
2023-05-11T04:56:40.670Z,90.39
2023-05-11T04:57:40.400Z,90.43
2023-05-11T04:58:40.931Z,90.49
2023-05-11T04:59:41.584Z,90.46
2023-05-11T05:00:42.443Z,90.52
2023-05-11T05:01:40.424Z,90.54
2023-05-11T05:02:40.392Z,90.54
2023-05-11T05:03:40.250Z,90.52
2023-05-11T05:04:40.007Z,90.50
2023-05-11T05:05:39.905Z,90.46
2023-05-11T05:06:40.689Z,90.45
2023-05-11T05:07:40.254Z,90.55
2023-05-11T05:08:40.214Z,90.63
2023-05-11T05:09:40.115Z,90.73
2023-05-11T05:10:40.041Z,90.85
2023-05-11T05:11:40.035Z,90.85
2023-05-11T05:12:39.822Z,90.78
2023-05-11T05:13:40.468Z,90.80
2023-05-11T05:14:40.258Z,90.84
2023-05-11T05:15:40.099Z,90.91
2023-05-11T05:16:40.188Z,91.00
2023-05-11T05:17:39.814Z,91.04
2023-05-11T05:18:40.683Z,90.96
2023-05-11T05:19:40.423Z,91.05
2023-05-11T05:20:40.194Z,91.06
2023-05-11T05:21:45.019Z,91.04
2023-05-11T05:22:39.738Z,91.07
2023-05-11T05:23:40.168Z,91.08
2023-05-11T05:24:39.951Z,91.15
2023-05-11T05:25:45.804Z,91.24
2023-05-11T05:26:40.318Z,91.34
2023-05-11T05:27:40.084Z,91.46
2023-05-11T05:28:40.066Z,91.57
2023-05-11T05:29:39.931Z,91.67
2023-05-11T05:30:40.910Z,91.68
2023-05-11T05:31:40.607Z,91.70
2023-05-11T05:32:39.906Z,91.77
2023-05-11T05:33:40.201Z,91.81
2023-05-11T05:34:40.057Z,91.86
2023-05-11T05:35:39.986Z,91.89
2023-05-11T05:36:40.032Z,91.90
2023-05-11T05:37:41.019Z,91.98
2023-05-11T05:38:40.257Z,92.02
2023-05-11T05:39:40.106Z,92.02
2023-05-11T05:40:40.322Z,91.96
2023-05-11T05:41:39.830Z,91.97
2023-05-11T05:42:40.290Z,91.94
2023-05-11T05:43:39.951Z,91.91
2023-05-11T05:44:40.294Z,91.88
2023-05-11T05:45:40.157Z,91.74
2023-05-11T05:46:40.351Z,91.74
2023-05-11T05:47:40.405Z,91.72
2023-05-11T05:48:40.372Z,91.67
2023-05-11T05:49:39.995Z,91.65
2023-05-11T05:50:40.136Z,91.65
2023-05-11T05:51:40.136Z,91.61
2023-05-11T05:52:39.895Z,91.57
2023-05-11T05:53:40.637Z,91.61
2023-05-11T05:54:40.511Z,91.65
2023-05-11T05:55:40.428Z,91.74
2023-05-11T05:56:40.044Z,91.80
2023-05-11T05:57:39.866Z,91.86
2023-05-11T05:58:40.607Z,91.87
2023-05-11T05:59:40.681Z,91.85
2023-05-11T06:00:41.556Z,91.85
2023-05-11T06:01:40.586Z,91.95
2023-05-11T06:02:40.577Z,91.97
2023-05-11T06:03:49.721Z,91.90
2023-05-11T06:04:40.718Z,91.79
2023-05-11T06:05:40.652Z,91.67
2023-05-11T06:06:40.174Z,91.75
2023-05-11T06:07:39.821Z,91.81
2023-05-11T06:08:40.789Z,91.85
2023-05-11T06:09:40.532Z,91.88
2023-05-11T06:10:40.656Z,91.95
2023-05-11T06:11:40.401Z,92.07
2023-05-11T06:12:40.460Z,92.26
2023-05-11T06:13:40.591Z,92.30
2023-05-11T06:14:40.310Z,92.25
2023-05-11T06:15:43.184Z,92.15
2023-05-11T06:16:40.829Z,92.18
2023-05-11T06:17:40.628Z,92.23
2023-05-11T06:18:40.353Z,92.38
2023-05-11T06:19:40.289Z,92.45
2023-05-11T06:20:40.222Z,92.57
2023-05-11T06:22:12.211Z,92.60
2023-05-11T06:22:45.589Z,92.59
2023-05-11T06:23:40.301Z,92.48
2023-05-11T06:24:40.504Z,92.26
2023-05-11T06:25:40.531Z,92.05
2023-05-11T06:26:40.121Z,92.01
2023-05-11T06:27:54.297Z,91.94
2023-05-11T06:28:40.214Z,91.93
2023-05-11T06:29:40.002Z,92.05
2023-05-11T06:30:40.204Z,92.09
2023-05-11T06:31:40.422Z,92.06
2023-05-11T06:32:40.391Z,92.01
2023-05-11T06:33:59.068Z,91.85
2023-05-11T06:34:40.181Z,91.60
2023-05-11T06:35:59.195Z,91.5
2023-05-11T06:36:40.006Z,91.45
2023-05-11T06:37:40.208Z,91.48
2023-05-11T06:38:40.190Z,91.50
2023-05-11T06:39:40.450Z,91.47
2023-05-11T06:40:40.373Z,91.55
2023-05-11T06:42:11.901Z,91.59
2023-05-11T06:42:45.207Z,91.56
2023-05-11T06:43:40.424Z,91.51
2023-05-11T06:44:40.428Z,91.46
2023-05-11T06:45:40.814Z,91.25
2023-05-11T06:46:40.882Z,91.27
2023-05-11T06:47:40.871Z,91.32
2023-05-11T06:48:40.385Z,91.40
2023-05-11T06:49:40.319Z,91.43
2023-05-11T06:50:43.107Z,91.45
2023-05-11T06:51:39.892Z,91.42
2023-05-11T06:52:40.082Z,91.39
2023-05-11T06:53:39.719Z,91.29
2023-05-11T06:54:40.165Z,91.26
2023-05-11T06:55:40.285Z,91.33
2023-05-11T06:56:40.104Z,91.38
2023-05-11T06:57:39.786Z,91.30
2023-05-11T06:58:40.614Z,91.28
2023-05-11T06:59:40.277Z,91.19
2023-05-11T07:00:41.269Z,91.10
2023-05-11T07:01:40.318Z,91.01
2023-05-11T07:02:41.053Z,90.91
2023-05-11T07:03:40.208Z,90.74
2023-05-11T07:04:40.711Z,90.66
2023-05-11T07:05:40.413Z,90.51
2023-05-11T07:06:40.544Z,90.48
2023-05-11T07:07:40.552Z,90.45
2023-05-11T07:08:40.589Z,90.47
2023-05-11T07:09:41.993Z,90.36
2023-05-11T07:10:40.589Z,90.34
2023-05-11T07:11:40.347Z,90.29
2023-05-11T07:12:40.072Z,90.29
2023-05-11T07:13:39.860Z,90.23
2023-05-11T07:14:40.791Z,90.18
2023-05-11T07:15:40.891Z,90.10
2023-05-11T07:16:40.949Z,89.97
2023-05-11T07:17:40.829Z,89.97
2023-05-11T07:18:40.656Z,90.05
2023-05-11T07:19:40.444Z,90.05
2023-05-11T07:20:40.744Z,90.03
2023-05-11T07:21:40.478Z,89.97
2023-05-11T07:22:40.195Z,90.07
2023-05-11T07:23:40.161Z,90.22
2023-05-11T07:24:39.825Z,90.11
2023-05-11T07:25:40.583Z,89.98
2023-05-11T07:26:39.796Z,89.86
2023-05-11T07:27:40.357Z,89.78
2023-05-11T07:28:40.338Z,89.82
2023-05-11T07:29:39.834Z,89.86
2023-05-11T07:30:41.669Z,89.75
2023-05-11T07:31:40.565Z,89.69
2023-05-11T07:32:40.171Z,89.69
2023-05-11T07:33:39.975Z,89.76
2023-05-11T07:34:39.991Z,89.64
2023-05-11T07:35:40.517Z,89.68
2023-05-11T07:36:40.393Z,89.77
2023-05-11T07:37:40.100Z,89.83
2023-05-11T07:38:39.770Z,90.03
2023-05-11T07:39:40.427Z,90.09
2023-05-11T07:40:40.918Z,90.22
2023-05-11T07:41:40.491Z,90.39
2023-05-11T07:42:40.204Z,89.97
2023-05-11T07:43:40.259Z,89.91
2023-05-11T07:44:40.250Z,89.73
2023-05-11T07:45:40.570Z,89.69
2023-05-11T07:46:40.514Z,89.73
2023-05-11T07:47:40.686Z,89.88
2023-05-11T07:48:40.759Z,89.73
2023-05-11T07:49:55.339Z,89.83
2023-05-11T07:50:40.886Z,89.94
2023-05-11T07:51:40.533Z,90.10
2023-05-11T07:52:45.098Z,90.02
2023-05-11T07:53:40.077Z,89.86
2023-05-11T07:54:39.802Z,89.73
2023-05-11T07:55:40.727Z,89.59
2023-05-11T07:56:40.496Z,89.40
2023-05-11T07:57:40.552Z,89.38
2023-05-11T07:58:40.769Z,89.34
2023-05-11T07:59:40.978Z,89.37
2023-05-11T08:00:40.729Z,89.42
2023-05-11T08:01:40.672Z,89.62
2023-05-11T08:02:40.938Z,89.08
2023-05-11T08:03:39.802Z,88.89
2023-05-11T08:04:40.364Z,89.04
2023-05-11T08:05:40.274Z,88.93
2023-05-11T08:06:40.363Z,88.94
2023-05-11T08:07:41.620Z,88.95
2023-05-11T08:08:41.094Z,89.07
2023-05-11T08:09:40.423Z,89.06
2023-05-11T08:10:40.411Z,89.12
2023-05-11T08:11:39.933Z,88.98
2023-05-11T08:12:40.931Z,88.83
2023-05-11T08:13:41.674Z,88.62
2023-05-11T08:14:40.344Z,88.58
2023-05-11T08:15:40.527Z,88.67
2023-05-11T08:16:40.737Z,88.76
2023-05-11T08:17:40.733Z,88.70
2023-05-11T08:18:40.775Z,88.64
2023-05-11T08:19:40.072Z,88.44
2023-05-11T08:20:40.023Z,88.33
2023-05-11T08:21:39.902Z,88.39
2023-05-11T08:22:45.498Z,88.58
2023-05-11T08:23:40.284Z,88.78
2023-05-11T08:24:40.123Z,88.91
2023-05-11T08:25:40.117Z,88.79
2023-05-11T08:26:44.878Z,88.70
2023-05-11T08:27:40.427Z,88.59
2023-05-11T08:28:40.647Z,88.26
2023-05-11T08:29:40.761Z,88.21
2023-05-11T08:31:05.848Z,88.32
2023-05-11T08:31:42.388Z,88.28
2023-05-11T08:32:57.693Z,88.18
2023-05-11T08:33:54.306Z,88.34
2023-05-11T08:34:48.778Z,88.44
2023-05-11T08:35:40.689Z,88.56
2023-05-11T08:36:40.589Z,88.56
2023-05-11T08:37:40.314Z,88.47
2023-05-11T08:38:40.328Z,88.17
2023-05-11T08:40:02.259Z,87.91
2023-05-11T08:40:40.496Z,87.63
2023-05-11T08:41:40.158Z,87.62
2023-05-11T08:42:40.164Z,87.64
2023-05-11T08:43:39.968Z,87.53
2023-05-11T08:44:54.842Z,87.62
2023-05-11T08:45:41.327Z,87.55
2023-05-11T08:46:40.582Z,87.79
2023-05-11T08:47:40.772Z,87.85
2023-05-11T08:48:41.181Z,87.87
2023-05-11T08:49:40.167Z,87.93
2023-05-11T08:50:40.098Z,87.76
2023-05-11T08:51:40.109Z,87.32
2023-05-11T08:52:39.717Z,87.35
2023-05-11T08:53:40.736Z,87.39
2023-05-11T08:54:40.825Z,87.48
2023-05-11T08:55:40.929Z,87.41
2023-05-11T08:56:40.488Z,87.46
2023-05-11T08:57:40.372Z,87.58
2023-05-11T08:58:40.517Z,87.58
2023-05-11T08:59:40.620Z,87.69
2023-05-11T09:00:41.484Z,87.69
2023-05-11T09:01:41.071Z,87.45
2023-05-11T09:02:40.450Z,87.30
2023-05-11T09:03:40.350Z,87.25
2023-05-11T09:04:40.776Z,87.30
2023-05-11T09:05:41.032Z,87.39
2023-05-11T09:06:40.402Z,87.42
2023-05-11T09:07:40.459Z,87.46
2023-05-11T09:08:40.274Z,87.37
2023-05-11T09:09:40.069Z,87.17
2023-05-11T09:10:40.101Z,87.09
2023-05-11T09:11:39.911Z,86.95
2023-05-11T09:12:40.535Z,86.90
2023-05-11T09:13:40.689Z,86.86
2023-05-11T09:14:43.471Z,86.74
2023-05-11T09:15:40.552Z,86.34
2023-05-11T09:16:53.081Z,86.11
2023-05-11T09:17:40.224Z,86.09
2023-05-11T09:18:40.309Z,85.90
2023-05-11T09:19:40.368Z,85.76
2023-05-11T09:20:40.116Z,85.75
2023-05-11T09:21:40.059Z,85.98
2023-05-11T09:22:40.144Z,86.11
2023-05-11T09:23:40.181Z,86.00
2023-05-11T09:24:40.294Z,85.87
2023-05-11T09:25:40.198Z,85.90
2023-05-11T09:26:40.289Z,85.94
2023-05-11T09:27:41.579Z,85.94
2023-05-11T09:29:51.794Z,85.27
2023-05-11T09:30:40.607Z,85.07
2023-05-11T09:31:40.572Z,85.11
2023-05-11T09:32:40.948Z,85.16
2023-05-11T09:33:40.040Z,85.22
2023-05-11T09:34:43.102Z,85.30
2023-05-11T09:35:40.508Z,85.40
2023-05-11T09:36:40.492Z,85.35
2023-05-11T09:37:40.570Z,85.28
2023-05-11T09:38:40.455Z,84.98
2023-05-11T09:40:25.144Z,84.86
2023-05-11T09:40:43.501Z,84.62
2023-05-11T09:41:40.450Z,84.53
2023-05-11T09:42:40.289Z,84.52
2023-05-11T09:43:40.269Z,84.71
2023-05-11T09:44:40.142Z,84.77
2023-05-11T09:45:40.451Z,84.91
2023-05-11T09:46:40.616Z,85.10
2023-05-11T09:47:40.986Z,85.17
2023-05-11T09:48:39.937Z,85.17
2023-05-11T09:49:40.724Z,85.05
2023-05-11T09:50:42.563Z,85.16
2023-05-11T09:51:40.515Z,85.15
2023-05-11T09:52:40.278Z,84.95
2023-05-11T09:53:42.471Z,84.86
2023-05-11T09:54:40.267Z,84.84
2023-05-11T09:55:40.422Z,84.95
2023-05-11T09:56:40.495Z,84.91
2023-05-11T09:57:40.127Z,84.89
2023-05-11T09:58:40.144Z,85.05
2023-05-11T09:59:42.448Z,85.25
2023-05-11T10:00:41.526Z,85.48
2023-05-11T10:01:40.975Z,85.52
2023-05-11T10:02:40.610Z,85.62
2023-05-11T10:03:40.830Z,85.66
2023-05-11T10:04:40.950Z,85.79
2023-05-11T10:05:41.064Z,85.91
2023-05-11T10:06:39.978Z,86.04
2023-05-11T10:07:39.843Z,86.09
2023-05-11T10:08:40.854Z,86.16
2023-05-11T10:09:40.844Z,86.12
2023-05-11T10:10:40.902Z,86.16
2023-05-11T10:11:42.242Z,86.27
2023-05-11T10:12:39.986Z,86.21
2023-05-11T10:13:44.954Z,86.17
2023-05-11T10:14:40.787Z,85.97
2023-05-11T10:15:45.986Z,85.93
2023-05-11T10:16:40.922Z,85.80
2023-05-11T10:17:41.271Z,85.72
2023-05-11T10:18:40.978Z,85.23
2023-05-11T10:19:40.004Z,85.28
2023-05-11T10:20:40.516Z,85.36
2023-05-11T10:21:45.426Z,85.49
2023-05-11T10:22:40.689Z,85.61
2023-05-11T10:23:40.644Z,85.69
2023-05-11T10:24:40.385Z,85.82
2023-05-11T10:25:40.628Z,85.94
2023-05-11T10:26:40.686Z,85.94
2023-05-11T10:27:54.331Z,86.06
2023-05-11T10:28:40.150Z,85.86
2023-05-11T10:29:40.109Z,85.72
2023-05-11T10:30:40.590Z,85.47
2023-05-11T10:31:40.782Z,85.10
2023-05-11T10:32:40.966Z,85.05
2023-05-11T10:33:39.999Z,85.15
2023-05-11T10:34:40.400Z,85.19
2023-05-11T10:35:41.184Z,85.23
2023-05-11T10:36:41.042Z,84.65
2023-05-11T10:37:54.841Z,84.39
2023-05-11T10:38:41.099Z,84.45
2023-05-11T10:39:59.328Z,84.64
2023-05-11T10:40:40.060Z,84.82
2023-05-11T10:41:40.062Z,84.98
2023-05-11T10:42:40.107Z,85.19
2023-05-11T10:43:40.426Z,85.48
2023-05-11T10:44:40.223Z,85.23
2023-05-11T10:45:40.242Z,84.98
2023-05-11T10:46:40.485Z,84.89
2023-05-11T10:47:40.557Z,84.99
2023-05-11T10:48:40.601Z,84.71
2023-05-11T10:49:40.714Z,84.70
2023-05-11T10:50:43.171Z,84.70
2023-05-11T10:51:46.093Z,84.56
2023-05-11T10:52:40.215Z,84.29
2023-05-11T10:53:40.658Z,84.01
2023-05-11T10:54:40.355Z,83.80
2023-05-11T10:55:47.156Z,83.78
2023-05-11T10:56:40.341Z,83.78
2023-05-11T10:57:48.396Z,83.79
2023-05-11T10:58:40.029Z,83.81
2023-05-11T10:59:40.285Z,83.91
2023-05-11T11:00:41.415Z,83.92
2023-05-11T11:02:12.283Z,83.89
2023-05-11T11:02:45.946Z,83.76
2023-05-11T11:03:48.901Z,83.71
2023-05-11T11:04:40.504Z,83.74
2023-05-11T11:05:54.844Z,83.65
2023-05-11T11:06:40.691Z,83.55
2023-05-11T11:07:40.568Z,83.38
2023-05-11T11:08:40.284Z,83.56
2023-05-11T11:09:39.955Z,83.64
2023-05-11T11:10:40.829Z,83.43
2023-05-11T11:11:40.961Z,83.36
2023-05-11T11:12:39.983Z,83.47
2023-05-11T11:13:40.143Z,83.37
2023-05-11T11:14:40.274Z,83.26
2023-05-11T11:15:40.403Z,83.07
2023-05-11T11:16:40.497Z,83.19
2023-05-11T11:17:40.476Z,83.25
2023-05-11T11:18:40.742Z,83.23
2023-05-11T11:19:40.486Z,82.84
2023-05-11T11:20:40.378Z,82.59
2023-05-11T11:21:42.128Z,82.55
2023-05-11T11:22:40.199Z,82.73
2023-05-11T11:23:40.119Z,82.83
2023-05-11T11:24:40.320Z,82.90
2023-05-11T11:25:40.558Z,82.91
2023-05-11T11:26:40.195Z,82.90
2023-05-11T11:27:45.109Z,82.96
2023-05-11T11:28:39.790Z,82.99
2023-05-11T11:29:41.410Z,82.99
2023-05-11T11:30:41.275Z,83.04
2023-05-11T11:31:40.520Z,82.99
2023-05-11T11:32:40.262Z,83.01
2023-05-11T11:33:40.301Z,82.95
2023-05-11T11:34:40.034Z,82.97
2023-05-11T11:35:40.245Z,82.83
2023-05-11T11:36:40.624Z,82.73
2023-05-11T11:38:02.807Z,82.62
2023-05-11T11:38:43.163Z,82.73
2023-05-11T11:39:40.699Z,82.82
2023-05-11T11:40:50.564Z,82.60
2023-05-11T11:41:39.594Z,82.59
2023-05-11T11:42:40.295Z,82.63
2023-05-11T11:43:40.121Z,82.66
2023-05-11T11:44:39.971Z,82.40
2023-05-11T11:45:41.191Z,82.30
2023-05-11T11:46:40.184Z,82.30
2023-05-11T11:47:40.402Z,82.14
2023-05-11T11:48:40.555Z,82.19
2023-05-11T11:50:40.458Z,82.39
2023-05-11T11:51:40.846Z,82.35
2023-05-11T11:52:40.656Z,82.29
2023-05-11T11:53:40.668Z,82.47
2023-05-11T11:54:41.060Z,82.66
2023-05-11T11:55:40.257Z,82.74
2023-05-11T11:56:40.453Z,82.61
2023-05-11T11:57:40.148Z,82.58
2023-05-11T11:58:40.404Z,82.54
2023-05-11T11:59:40.708Z,82.55
2023-05-11T12:00:41.469Z,82.28
2023-05-11T12:01:40.191Z,81.90
2023-05-11T12:02:40.380Z,81.58
2023-05-11T12:03:40.786Z,81.37
2023-05-11T12:04:41.028Z,81.16
2023-05-11T12:05:40.693Z,81.00
2023-05-11T12:06:42.625Z,80.81
2023-05-11T12:07:40.332Z,80.82
2023-05-11T12:08:40.067Z,80.86
2023-05-11T12:09:39.809Z,80.81
2023-05-11T12:10:40.963Z,80.54
2023-05-11T12:11:40.996Z,80.37
2023-05-11T12:12:40.196Z,79.95
2023-05-11T12:13:39.936Z,79.97
2023-05-11T12:14:40.646Z,79.91
2023-05-11T12:15:40.754Z,80.15
2023-05-11T12:16:40.625Z,80.12
2023-05-11T12:17:40.710Z,79.99
2023-05-11T12:18:40.889Z,80.06
2023-05-11T12:19:40.705Z,80.13
2023-05-11T12:20:40.520Z,80.27
2023-05-11T12:21:40.083Z,80.56
2023-05-11T12:22:39.708Z,80.77
2023-05-11T12:23:40.410Z,81.05
2023-05-11T12:24:40.328Z,81.25
2023-05-11T12:25:40.132Z,81.38
2023-05-11T12:26:39.957Z,81.40
2023-05-11T12:27:40.515Z,81.28
2023-05-11T12:28:40.636Z,81.20
2023-05-11T12:29:40.517Z,81.18
2023-05-11T12:30:40.713Z,81.28
2023-05-11T12:31:40.842Z,81.42
2023-05-11T12:32:40.554Z,81.38
2023-05-11T12:33:40.333Z,81.01
2023-05-11T12:34:39.732Z,80.22
2023-05-11T12:35:40.502Z,79.59
2023-05-11T12:36:40.664Z,79.60
2023-05-11T12:37:40.510Z,79.83
2023-05-11T12:38:40.178Z,79.91
2023-05-11T12:39:39.765Z,79.55
2023-05-11T12:40:45.369Z,79.38
2023-05-11T12:41:40.188Z,79.21
2023-05-11T12:42:44.940Z,79.22
2023-05-11T12:43:40.275Z,79.26
2023-05-11T12:44:47.628Z,79.28
2023-05-11T12:45:40.300Z,79.58
2023-05-11T12:46:39.865Z,79.77
2023-05-11T12:47:40.294Z,79.97
2023-05-11T12:48:40.157Z,79.76
2023-05-11T12:49:42.612Z,79.92
2023-05-11T12:50:40.666Z,79.90
2023-05-11T12:51:40.658Z,80.04
2023-05-11T12:52:40.503Z,80.16
2023-05-11T12:53:40.432Z,80.06
2023-05-11T12:54:40.026Z,79.90
2023-05-11T12:55:40.490Z,79.63
2023-05-11T12:56:40.184Z,79.49
2023-05-11T12:57:40.132Z,79.42